sensor_id;sensor_type;location;lat;lon;timestamp;temperature;humidity
55329;DHT22;41205;44.264;19.884;2023-09-08T00:02:23;435.50;2355.20
55329;DHT22;41205;44.264;19.884;2023-09-08T00:04:49;435.60;2355.20
55329;DHT22;41205;44.264;19.884;2023-09-08T00:07:15;435.60;2355.20
55329;DHT22;41205;44.264;19.884;2023-09-08T00:09:40;435.60;2355.20
55329;DHT22;41205;44.264;19.884;2023-09-08T00:12:06;435.50;2355.20
55329;DHT22;41205;44.264;19.884;2023-09-08T00:14:32;435.50;2355.20
55329;DHT22;41205;44.264;19.884;2023-09-08T00:16:58;435.50;2355.20
55329;DHT22;41205;44.264;19.884;2023-09-08T00:19:24;435.30;2355.20
55329;DHT22;41205;44.264;19.884;2023-09-08T00:21:50;435.30;2355.20
55329;DHT22;41205;44.264;19.884;2023-09-08T00:24:16;435.30;2355.20
55329;DHT22;41205;44.264;19.884;2023-09-08T00:26:41;435.30;2355.20
55329;DHT22;41205;44.264;19.884;2023-09-08T00:29:07;435.30;2355.20
55329;DHT22;41205;44.264;19.884;2023-09-08T00:31:33;435.40;2355.20
55329;DHT22;41205;44.264;19.884;2023-09-08T00:33:59;435.40;2355.20
55329;DHT22;41205;44.264;19.884;2023-09-08T00:36:24;435.40;2355.20
55329;DHT22;41205;44.264;19.884;2023-09-08T00:38:50;435.40;2355.20
55329;DHT22;41205;44.264;19.884;2023-09-08T00:41:16;435.50;2355.20
55329;DHT22;41205;44.264;19.884;2023-09-08T00:43:41;435.50;2355.20
55329;DHT22;41205;44.264;19.884;2023-09-08T00:46:09;435.50;2355.20
55329;DHT22;41205;44.264;19.884;2023-09-08T00:48:35;435.40;2355.20
55329;DHT22;41205;44.264;19.884;2023-09-08T00:51:01;435.40;2355.20
55329;DHT22;41205;44.264;19.884;2023-09-08T00:53:28;435.30;2355.20
55329;DHT22;41205;44.264;19.884;2023-09-08T00:55:54;435.30;2355.20
55329;DHT22;41205;44.264;19.884;2023-09-08T00:58:21;435.30;2355.20
55329;DHT22;41205;44.264;19.884;2023-09-08T01:00:47;435.30;2355.20
55329;DHT22;41205;44.264;19.884;2023-09-08T01:03:13;435.30;2355.20
55329;DHT22;41205;44.264;19.884;2023-09-08T01:05:40;435.30;2355.20
55329;DHT22;41205;44.264;19.884;2023-09-08T01:08:06;435.20;2355.20
55329;DHT22;41205;44.264;19.884;2023-09-08T01:10:33;410.50;2355.20
55329;DHT22;41205;44.264;19.884;2023-09-08T01:12:59;410.50;2355.20
55329;DHT22;41205;44.264;19.884;2023-09-08T01:15:24;410.50;2355.20
55329;DHT22;41205;44.264;19.884;2023-09-08T01:17:50;410.50;2355.20
55329;DHT22;41205;44.264;19.884;2023-09-08T01:20:29;410.50;2355.20
55329;DHT22;41205;44.264;19.884;2023-09-08T01:23:24;410.50;2355.20
55329;DHT22;41205;44.264;19.884;2023-09-08T01:26:10;410.50;2355.20
55329;DHT22;41205;44.264;19.884;2023-09-08T01:28:37;435.20;2355.20
55329;DHT22;41205;44.264;19.884;2023-09-08T01:31:05;435.20;2355.20
55329;DHT22;41205;44.264;19.884;2023-09-08T01:33:31;410.50;2355.20
55329;DHT22;41205;44.264;19.884;2023-09-08T01:35:57;410.50;2355.20
55329;DHT22;41205;44.264;19.884;2023-09-08T01:38:24;410.50;2355.20
55329;DHT22;41205;44.264;19.884;2023-09-08T01:40:50;410.30;2355.20
55329;DHT22;41205;44.264;19.884;2023-09-08T01:43:15;410.20;2355.20
55329;DHT22;41205;44.264;19.884;2023-09-08T01:45:41;410.20;2355.20
55329;DHT22;41205;44.264;19.884;2023-09-08T01:48:06;410.20;2355.20
55329;DHT22;41205;44.264;19.884;2023-09-08T01:50:32;410.10;2355.20
55329;DHT22;41205;44.264;19.884;2023-09-08T01:52:58;409.90;2355.20
55329;DHT22;41205;44.264;19.884;2023-09-08T01:55:24;410.00;2355.20
55329;DHT22;41205;44.264;19.884;2023-09-08T01:57:49;410.00;2355.20
55329;DHT22;41205;44.264;19.884;2023-09-08T02:00:15;410.10;2355.20
55329;DHT22;41205;44.264;19.884;2023-09-08T02:02:41;410.10;2355.20
55329;DHT22;41205;44.264;19.884;2023-09-08T02:05:08;410.10;2355.20
55329;DHT22;41205;44.264;19.884;2023-09-08T02:07:34;410.10;2355.20
55329;DHT22;41205;44.264;19.884;2023-09-08T02:10:00;410.00;2355.20
55329;DHT22;41205;44.264;19.884;2023-09-08T02:12:26;410.10;2355.20
55329;DHT22;41205;44.264;19.884;2023-09-08T02:14:52;410.00;2355.20
55329;DHT22;41205;44.264;19.884;2023-09-08T02:17:17;410.00;2355.20
55329;DHT22;41205;44.264;19.884;2023-09-08T02:19:43;410.00;2355.20
55329;DHT22;41205;44.264;19.884;2023-09-08T02:22:09;410.00;2355.20
55329;DHT22;41205;44.264;19.884;2023-09-08T02:24:35;409.90;2355.20
55329;DHT22;41205;44.264;19.884;2023-09-08T02:27:00;409.90;2355.20
55329;DHT22;41205;44.264;19.884;2023-09-08T02:29:26;409.90;2355.20
55329;DHT22;41205;44.264;19.884;2023-09-08T02:31:52;409.80;2355.20
55329;DHT22;41205;44.264;19.884;2023-09-08T02:34:17;409.80;2355.20
55329;DHT22;41205;44.264;19.884;2023-09-08T02:36:43;409.80;2355.20
55329;DHT22;41205;44.264;19.884;2023-09-08T02:39:09;409.90;2355.20
55329;DHT22;41205;44.264;19.884;2023-09-08T02:41:36;409.90;2355.20
55329;DHT22;41205;44.264;19.884;2023-09-08T02:44:02;409.90;2355.20
55329;DHT22;41205;44.264;19.884;2023-09-08T02:46:27;409.60;2355.20
55329;DHT22;41205;44.264;19.884;2023-09-08T02:48:53;409.70;2355.20
55329;DHT22;41205;44.264;19.884;2023-09-08T02:51:19;409.70;2355.20
55329;DHT22;41205;44.264;19.884;2023-09-08T02:53:44;409.70;2355.20
55329;DHT22;41205;44.264;19.884;2023-09-08T02:56:10;409.70;2355.20
55329;DHT22;41205;44.264;19.884;2023-09-08T02:58:36;409.70;2355.20
55329;DHT22;41205;44.264;19.884;2023-09-08T03:01:15;409.60;2355.20
55329;DHT22;41205;44.264;19.884;2023-09-08T03:03:42;409.60;2355.20
55329;DHT22;41205;44.264;19.884;2023-09-08T03:06:09;409.60;2355.20
55329;DHT22;41205;44.264;19.884;2023-09-08T03:08:35;384.90;2329.60
55329;DHT22;41205;44.264;19.884;2023-09-08T03:11:03;409.60;2355.20
55329;DHT22;41205;44.264;19.884;2023-09-08T03:13:28;409.60;2355.20
55329;DHT22;41205;44.264;19.884;2023-09-08T03:15:55;409.60;2355.20
55329;DHT22;41205;44.264;19.884;2023-09-08T03:18:21;409.60;2355.20
55329;DHT22;41205;44.264;19.884;2023-09-08T03:20:50;409.70;2355.20
55329;DHT22;41205;44.264;19.884;2023-09-08T03:23:17;409.60;2355.20
55329;DHT22;41205;44.264;19.884;2023-09-08T03:25:43;409.70;2355.20
55329;DHT22;41205;44.264;19.884;2023-09-08T03:28:11;409.60;2355.20
55329;DHT22;41205;44.264;19.884;2023-09-08T03:30:37;409.70;2355.20
55329;DHT22;41205;44.264;19.884;2023-09-08T03:33:02;409.60;2355.20
55329;DHT22;41205;44.264;19.884;2023-09-08T03:35:28;409.60;2355.20
55329;DHT22;41205;44.264;19.884;2023-09-08T03:37:54;384.90;2329.60
55329;DHT22;41205;44.264;19.884;2023-09-08T03:40:19;384.90;2329.60
55329;DHT22;41205;44.264;19.884;2023-09-08T03:42:45;384.90;2329.60
55329;DHT22;41205;44.264;19.884;2023-09-08T03:45:11;384.90;2329.60
55329;DHT22;41205;44.264;19.884;2023-09-08T03:47:36;384.90;2329.60
55329;DHT22;41205;44.264;19.884;2023-09-08T03:50:02;384.90;2329.60
55329;DHT22;41205;44.264;19.884;2023-09-08T03:52:28;384.80;2329.60
55329;DHT22;41205;44.264;19.884;2023-09-08T03:54:53;384.70;2329.60
55329;DHT22;41205;44.264;19.884;2023-09-08T03:57:19;384.80;2329.60
55329;DHT22;41205;44.264;19.884;2023-09-08T03:59:45;384.80;2329.60
55329;DHT22;41205;44.264;19.884;2023-09-08T04:02:10;384.90;2329.60
55329;DHT22;41205;44.264;19.884;2023-09-08T04:04:36;384.90;2329.60
55329;DHT22;41205;44.264;19.884;2023-09-08T04:07:02;384.90;2329.60
55329;DHT22;41205;44.264;19.884;2023-09-08T04:09:28;384.90;2329.60
55329;DHT22;41205;44.264;19.884;2023-09-08T04:11:54;384.80;2329.60
55329;DHT22;41205;44.264;19.884;2023-09-08T04:14:21;384.80;2329.60
55329;DHT22;41205;44.264;19.884;2023-09-08T04:16:49;384.70;2329.60
55329;DHT22;41205;44.264;19.884;2023-09-08T04:19:14;384.70;2329.60
55329;DHT22;41205;44.264;19.884;2023-09-08T04:21:41;384.80;2329.60
55329;DHT22;41205;44.264;19.884;2023-09-08T04:24:07;384.80;2329.60
55329;DHT22;41205;44.264;19.884;2023-09-08T04:26:32;384.80;2329.60
55329;DHT22;41205;44.264;19.884;2023-09-08T04:28:58;384.80;2329.60
55329;DHT22;41205;44.264;19.884;2023-09-08T04:31:24;384.80;2329.60
55329;DHT22;41205;44.264;19.884;2023-09-08T04:33:49;384.90;2329.60
55329;DHT22;41205;44.264;19.884;2023-09-08T04:36:15;409.60;2355.20
55329;DHT22;41205;44.264;19.884;2023-09-08T04:38:41;409.60;2355.20
55329;DHT22;41205;44.264;19.884;2023-09-08T04:41:07;409.60;2355.20
55329;DHT22;41205;44.264;19.884;2023-09-08T04:43:33;409.60;2355.20
55329;DHT22;41205;44.264;19.884;2023-09-08T04:45:58;409.80;2355.20
55329;DHT22;41205;44.264;19.884;2023-09-08T04:48:24;409.90;2355.20
55329;DHT22;41205;44.264;19.884;2023-09-08T04:50:50;409.90;2355.20
55329;DHT22;41205;44.264;19.884;2023-09-08T04:53:16;410.00;2355.20
55329;DHT22;41205;44.264;19.884;2023-09-08T04:55:43;410.10;2355.20
55329;DHT22;41205;44.264;19.884;2023-09-08T04:58:09;410.10;2355.20
55329;DHT22;41205;44.264;19.884;2023-09-08T05:00:34;410.20;2355.20
55329;DHT22;41205;44.264;19.884;2023-09-08T05:03:02;410.30;2355.20
55329;DHT22;41205;44.264;19.884;2023-09-08T05:05:28;410.50;2355.20
55329;DHT22;41205;44.264;19.884;2023-09-08T05:07:54;435.20;2355.20
55329;DHT22;41205;44.264;19.884;2023-09-08T05:10:22;435.50;2355.20
55329;DHT22;41205;44.264;19.884;2023-09-08T05:12:48;436.00;2355.20
55329;DHT22;41205;44.264;19.884;2023-09-08T05:15:15;460.90;2380.80
55329;DHT22;41205;44.264;19.884;2023-09-08T05:17:42;461.20;2380.80
55329;DHT22;41205;44.264;19.884;2023-09-08T05:20:08;461.40;2380.80
55329;DHT22;41205;44.264;19.884;2023-09-08T05:22:34;461.70;2380.80
55329;DHT22;41205;44.264;19.884;2023-09-08T05:25:00;461.70;2380.80
55329;DHT22;41205;44.264;19.884;2023-09-08T05:27:26;461.70;2380.80
55329;DHT22;41205;44.264;19.884;2023-09-08T05:29:52;486.40;2380.80
55329;DHT22;41205;44.264;19.884;2023-09-08T05:32:17;486.50;2380.80
55329;DHT22;41205;44.264;19.884;2023-09-08T05:34:44;486.50;2380.80
55329;DHT22;41205;44.264;19.884;2023-09-08T05:37:10;486.60;2380.80
55329;DHT22;41205;44.264;19.884;2023-09-08T05:39:35;487.20;2380.80
55329;DHT22;41205;44.264;19.884;2023-09-08T05:42:01;512.80;2380.80
55329;DHT22;41205;44.264;19.884;2023-09-08T05:44:27;512.70;2380.80
55329;DHT22;41205;44.264;19.884;2023-09-08T05:46:52;512.80;2380.80
55329;DHT22;41205;44.264;19.884;2023-09-08T05:49:18;512.80;2380.80
55329;DHT22;41205;44.264;19.884;2023-09-08T05:51:44;512.90;2380.80
55329;DHT22;41205;44.264;19.884;2023-09-08T05:54:11;537.60;2406.40
55329;DHT22;41205;44.264;19.884;2023-09-08T05:56:37;512.80;2380.80
55329;DHT22;41205;44.264;19.884;2023-09-08T05:59:03;537.90;2406.40
55329;DHT22;41205;44.264;19.884;2023-09-08T06:01:30;589.00;2432.00
55329;DHT22;41205;44.264;19.884;2023-09-08T06:03:56;666.00;2278.40
55329;DHT22;41205;44.264;19.884;2023-09-08T06:06:22;717.70;1971.20
55329;DHT22;41205;44.264;19.884;2023-09-08T06:08:47;793.80;1817.60
55329;DHT22;41205;44.264;19.884;2023-09-08T06:11:14;844.90;1638.40
55329;DHT22;41205;44.264;19.884;2023-09-08T06:13:40;845.70;1561.60
55329;DHT22;41205;44.264;19.884;2023-09-08T06:16:05;870.90;1510.40
55329;DHT22;41205;44.264;19.884;2023-09-08T06:18:31;871.30;1484.80
55329;DHT22;41205;44.264;19.884;2023-09-08T06:20:57;871.30;1459.20
55329;DHT22;41205;44.264;19.884;2023-09-08T06:23:23;871.00;1484.80
55329;DHT22;41205;44.264;19.884;2023-09-08T06:25:49;870.40;1510.40
55329;DHT22;41205;44.264;19.884;2023-09-08T06:28:15;870.90;1484.80
55329;DHT22;41205;44.264;19.884;2023-09-08T06:30:41;921.60;1433.60
55329;DHT22;41205;44.264;19.884;2023-09-08T06:33:10;921.80;1408.00
55329;DHT22;41205;44.264;19.884;2023-09-08T06:35:36;922.20;1408.00
55329;DHT22;41205;44.264;19.884;2023-09-08T06:38:01;973.20;1331.20
55329;DHT22;41205;44.264;19.884;2023-09-08T06:40:29;947.20;1356.80
55329;DHT22;41205;44.264;19.884;2023-09-08T06:42:55;922.30;1382.40
55329;DHT22;41205;44.264;19.884;2023-09-08T06:45:21;947.30;1356.80
55329;DHT22;41205;44.264;19.884;2023-09-08T06:47:46;921.80;1382.40
55329;DHT22;41205;44.264;19.884;2023-09-08T06:50:12;896.50;1408.00
55329;DHT22;41205;44.264;19.884;2023-09-08T06:52:38;921.80;1408.00
55329;DHT22;41205;44.264;19.884;2023-09-08T06:55:04;947.20;1331.20
55329;DHT22;41205;44.264;19.884;2023-09-08T06:57:30;922.00;1382.40
55329;DHT22;41205;44.264;19.884;2023-09-08T06:59:56;922.00;1356.80
55329;DHT22;41205;44.264;19.884;2023-09-08T07:02:21;947.80;1305.60
55329;DHT22;41205;44.264;19.884;2023-09-08T07:04:47;947.60;1280.00
55329;DHT22;41205;44.264;19.884;2023-09-08T07:07:13;973.30;1254.40
55329;DHT22;41205;44.264;19.884;2023-09-08T07:09:39;1024.60;1177.60
55329;DHT22;41205;44.264;19.884;2023-09-08T07:12:05;1049.70;1177.60
55329;DHT22;41205;44.264;19.884;2023-09-08T07:14:32;1024.30;1203.20
55329;DHT22;41205;44.264;19.884;2023-09-08T07:16:58;1024.00;1203.20
55329;DHT22;41205;44.264;19.884;2023-09-08T07:19:23;998.40;1228.80
55329;DHT22;41205;44.264;19.884;2023-09-08T07:21:49;998.60;1203.20
55329;DHT22;41205;44.264;19.884;2023-09-08T07:24:15;1024.70;1177.60
55329;DHT22;41205;44.264;19.884;2023-09-08T07:26:40;1050.40;1152.00
55329;DHT22;41205;44.264;19.884;2023-09-08T07:29:06;973.40;1203.20
55329;DHT22;41205;44.264;19.884;2023-09-08T07:31:32;1024.20;1152.00
55329;DHT22;41205;44.264;19.884;2023-09-08T07:33:59;999.10;1177.60
55329;DHT22;41205;44.264;19.884;2023-09-08T07:36:24;947.70;1228.80
55329;DHT22;41205;44.264;19.884;2023-09-08T07:38:50;947.90;1228.80
55329;DHT22;41205;44.264;19.884;2023-09-08T07:41:16;1024.20;1203.20
55329;DHT22;41205;44.264;19.884;2023-09-08T07:43:41;1024.90;1152.00
55329;DHT22;41205;44.264;19.884;2023-09-08T07:46:10;1024.30;1152.00
55329;DHT22;41205;44.264;19.884;2023-09-08T07:48:35;973.00;1228.80
55329;DHT22;41205;44.264;19.884;2023-09-08T07:51:01;998.40;1177.60
55329;DHT22;41205;44.264;19.884;2023-09-08T07:53:27;947.90;1228.80
55329;DHT22;41205;44.264;19.884;2023-09-08T07:55:53;998.80;1177.60
55329;DHT22;41205;44.264;19.884;2023-09-08T07:58:19;973.40;1203.20
55329;DHT22;41205;44.264;19.884;2023-09-08T08:00:44;948.00;1228.80
55329;DHT22;41205;44.264;19.884;2023-09-08T08:03:10;973.30;1228.80
55329;DHT22;41205;44.264;19.884;2023-09-08T08:05:36;1024.90;1152.00
55329;DHT22;41205;44.264;19.884;2023-09-08T08:08:02;1024.00;1177.60
55329;DHT22;41205;44.264;19.884;2023-09-08T08:10:27;998.40;1228.80
55329;DHT22;41205;44.264;19.884;2023-09-08T08:12:53;973.70;1177.60
55329;DHT22;41205;44.264;19.884;2023-09-08T08:15:20;1024.40;1152.00
55329;DHT22;41205;44.264;19.884;2023-09-08T08:17:49;973.60;1203.20
55329;DHT22;41205;44.264;19.884;2023-09-08T08:20:15;999.00;1177.60
55329;DHT22;41205;44.264;19.884;2023-09-08T08:22:46;998.80;1203.20
55329;DHT22;41205;44.264;19.884;2023-09-08T08:25:12;1024.50;1152.00
55329;DHT22;41205;44.264;19.884;2023-09-08T08:27:39;1075.60;1100.80
55329;DHT22;41205;44.264;19.884;2023-09-08T08:30:05;1075.30;1126.40
55329;DHT22;41205;44.264;19.884;2023-09-08T08:32:32;1050.00;1126.40
55329;DHT22;41205;44.264;19.884;2023-09-08T08:34:58;1024.30;1152.00
55329;DHT22;41205;44.264;19.884;2023-09-08T08:37:24;1024.30;1152.00
55329;DHT22;41205;44.264;19.884;2023-09-08T08:39:50;973.20;1228.80
55329;DHT22;41205;44.264;19.884;2023-09-08T08:42:15;948.00;1203.20
55329;DHT22;41205;44.264;19.884;2023-09-08T08:44:41;998.60;1203.20
55329;DHT22;41205;44.264;19.884;2023-09-08T08:47:08;972.90;1203.20
55329;DHT22;41205;44.264;19.884;2023-09-08T08:49:36;922.50;1254.40
55329;DHT22;41205;44.264;19.884;2023-09-08T08:52:02;922.00;1280.00
55329;DHT22;41205;44.264;19.884;2023-09-08T08:54:40;844.80;1408.00
55329;DHT22;41205;44.264;19.884;2023-09-08T08:57:06;819.20;1459.20
55329;DHT22;41205;44.264;19.884;2023-09-08T08:59:32;794.00;1484.80
55329;DHT22;41205;44.264;19.884;2023-09-08T09:01:59;794.20;1484.80
55329;DHT22;41205;44.264;19.884;2023-09-08T09:04:25;794.10;1510.40
55329;DHT22;41205;44.264;19.884;2023-09-08T09:06:53;794.30;1459.20
55329;DHT22;41205;44.264;19.884;2023-09-08T09:09:20;768.80;1484.80
55329;DHT22;41205;44.264;19.884;2023-09-08T09:11:46;768.80;1510.40
55329;DHT22;41205;44.264;19.884;2023-09-08T09:14:12;768.10;1561.60
55329;DHT22;41205;44.264;19.884;2023-09-08T09:16:41;768.40;1561.60
55329;DHT22;41205;44.264;19.884;2023-09-08T09:19:08;768.00;1587.20
55329;DHT22;41205;44.264;19.884;2023-09-08T09:21:45;768.20;1536.00
55329;DHT22;41205;44.264;19.884;2023-09-08T09:24:38;768.10;1561.60
55329;DHT22;41205;44.264;19.884;2023-09-08T09:27:07;768.30;1561.60
55329;DHT22;41205;44.264;19.884;2023-09-08T09:29:33;743.00;1587.20
55329;DHT22;41205;44.264;19.884;2023-09-08T09:32:07;768.10;1587.20
55329;DHT22;41205;44.264;19.884;2023-09-08T09:34:35;768.30;1561.60
55329;DHT22;41205;44.264;19.884;2023-09-08T09:37:01;743.10;1587.20
55329;DHT22;41205;44.264;19.884;2023-09-08T09:39:30;743.30;1561.60
55329;DHT22;41205;44.264;19.884;2023-09-08T09:41:57;768.10;1561.60
55329;DHT22;41205;44.264;19.884;2023-09-08T09:44:23;768.20;1561.60
55329;DHT22;41205;44.264;19.884;2023-09-08T09:46:52;768.30;1561.60
55329;DHT22;41205;44.264;19.884;2023-09-08T09:49:18;768.60;1536.00
55329;DHT22;41205;44.264;19.884;2023-09-08T09:51:48;768.40;1510.40
55329;DHT22;41205;44.264;19.884;2023-09-08T09:54:14;743.10;1536.00
55329;DHT22;41205;44.264;19.884;2023-09-08T09:56:41;742.80;1536.00
55329;DHT22;41205;44.264;19.884;2023-09-08T09:59:12;768.00;1536.00
55329;DHT22;41205;44.264;19.884;2023-09-08T10:01:39;743.00;1561.60
55329;DHT22;41205;44.264;19.884;2023-09-08T10:04:05;768.00;1536.00
55329;DHT22;41205;44.264;19.884;2023-09-08T10:06:33;743.10;1510.40
55329;DHT22;41205;44.264;19.884;2023-09-08T10:09:00;768.00;1510.40
55329;DHT22;41205;44.264;19.884;2023-09-08T10:11:29;743.10;1510.40
55329;DHT22;41205;44.264;19.884;2023-09-08T10:13:59;742.90;1510.40
55329;DHT22;41205;44.264;19.884;2023-09-08T10:16:27;742.80;1510.40
55329;DHT22;41205;44.264;19.884;2023-09-08T10:18:56;743.30;1484.80
55329;DHT22;41205;44.264;19.884;2023-09-08T10:21:25;742.90;1459.20
55329;DHT22;41205;44.264;19.884;2023-09-08T10:24:17;743.20;1459.20
55329;DHT22;41205;44.264;19.884;2023-09-08T10:26:54;743.30;1459.20
55329;DHT22;41205;44.264;19.884;2023-09-08T10:29:22;743.00;1459.20
55329;DHT22;41205;44.264;19.884;2023-09-08T10:31:48;743.00;1459.20
55329;DHT22;41205;44.264;19.884;2023-09-08T10:34:15;742.90;1433.60
55329;DHT22;41205;44.264;19.884;2023-09-08T10:36:41;742.80;1459.20
55329;DHT22;41205;44.264;19.884;2023-09-08T10:39:39;742.90;1459.20
55329;DHT22;41205;44.264;19.884;2023-09-08T10:44:56;742.60;1484.80
55329;DHT22;41205;44.264;19.884;2023-09-08T10:47:23;742.70;1484.80
55329;DHT22;41205;44.264;19.884;2023-09-08T10:49:50;743.00;1459.20
55329;DHT22;41205;44.264;19.884;2023-09-08T10:52:21;742.90;1459.20
55329;DHT22;41205;44.264;19.884;2023-09-08T10:54:49;742.90;1433.60
55329;DHT22;41205;44.264;19.884;2023-09-08T10:57:16;743.00;1433.60
55329;DHT22;41205;44.264;19.884;2023-09-08T11:02:33;742.80;1433.60
55329;DHT22;41205;44.264;19.884;2023-09-08T11:05:01;742.80;1433.60
55329;DHT22;41205;44.264;19.884;2023-09-08T11:07:27;742.90;1459.20
55329;DHT22;41205;44.264;19.884;2023-09-08T11:09:54;742.90;1433.60
55329;DHT22;41205;44.264;19.884;2023-09-08T11:12:20;743.10;1433.60
55329;DHT22;41205;44.264;19.884;2023-09-08T11:14:49;743.10;1433.60
55329;DHT22;41205;44.264;19.884;2023-09-08T11:17:14;743.30;1459.20
55329;DHT22;41205;44.264;19.884;2023-09-08T11:19:47;743.20;1408.00
55329;DHT22;41205;44.264;19.884;2023-09-08T11:22:14;743.10;1408.00
55329;DHT22;41205;44.264;19.884;2023-09-08T11:24:42;743.20;1408.00
55329;DHT22;41205;44.264;19.884;2023-09-08T11:27:08;742.90;1433.60
55329;DHT22;41205;44.264;19.884;2023-09-08T11:29:34;742.60;1459.20
55329;DHT22;41205;44.264;19.884;2023-09-08T11:32:00;742.70;1459.20
55329;DHT22;41205;44.264;19.884;2023-09-08T11:34:28;742.80;1433.60
55329;DHT22;41205;44.264;19.884;2023-09-08T11:36:54;742.80;1433.60
55329;DHT22;41205;44.264;19.884;2023-09-08T11:39:23;742.90;1433.60
55329;DHT22;41205;44.264;19.884;2023-09-08T11:41:51;743.00;1408.00
55329;DHT22;41205;44.264;19.884;2023-09-08T11:44:19;742.90;1408.00
55329;DHT22;41205;44.264;19.884;2023-09-08T11:46:46;742.90;1433.60
55329;DHT22;41205;44.264;19.884;2023-09-08T11:49:13;742.90;1433.60
55329;DHT22;41205;44.264;19.884;2023-09-08T11:51:39;742.60;1433.60
55329;DHT22;41205;44.264;19.884;2023-09-08T11:54:05;742.90;1459.20
55329;DHT22;41205;44.264;19.884;2023-09-08T11:56:31;742.50;1459.20
55329;DHT22;41205;44.264;19.884;2023-09-08T11:58:57;742.40;1484.80
55329;DHT22;41205;44.264;19.884;2023-09-08T12:01:23;742.90;1433.60
55329;DHT22;41205;44.264;19.884;2023-09-08T12:03:56;742.80;1433.60
55329;DHT22;41205;44.264;19.884;2023-09-08T12:06:26;742.80;1433.60
55329;DHT22;41205;44.264;19.884;2023-09-08T12:08:54;742.80;1459.20
55329;DHT22;41205;44.264;19.884;2023-09-08T12:11:20;742.80;1459.20
55329;DHT22;41205;44.264;19.884;2023-09-08T12:13:45;743.00;1510.40
55329;DHT22;41205;44.264;19.884;2023-09-08T12:16:19;768.10;1484.80
55329;DHT22;41205;44.264;19.884;2023-09-08T12:18:45;743.00;1459.20
55329;DHT22;41205;44.264;19.884;2023-09-08T12:21:11;742.80;1484.80
55329;DHT22;41205;44.264;19.884;2023-09-08T12:23:50;742.80;1510.40
55329;DHT22;41205;44.264;19.884;2023-09-08T12:26:17;742.90;1510.40
55329;DHT22;41205;44.264;19.884;2023-09-08T12:28:43;742.90;1510.40
55329;DHT22;41205;44.264;19.884;2023-09-08T12:31:18;742.60;1510.40
55329;DHT22;41205;44.264;19.884;2023-09-08T12:33:44;742.50;1536.00
55329;DHT22;41205;44.264;19.884;2023-09-08T12:36:18;742.40;1510.40
55329;DHT22;41205;44.264;19.884;2023-09-08T12:39:03;742.40;1536.00
55329;DHT22;41205;44.264;19.884;2023-09-08T12:41:30;742.70;1510.40
55329;DHT22;41205;44.264;19.884;2023-09-08T12:43:55;742.90;1510.40
55329;DHT22;41205;44.264;19.884;2023-09-08T12:46:21;742.80;1536.00
55329;DHT22;41205;44.264;19.884;2023-09-08T12:48:47;742.80;1510.40
55329;DHT22;41205;44.264;19.884;2023-09-08T12:51:13;742.90;1587.20
55329;DHT22;41205;44.264;19.884;2023-09-08T12:53:38;743.00;1510.40
55329;DHT22;41205;44.264;19.884;2023-09-08T12:56:04;742.80;1510.40
55329;DHT22;41205;44.264;19.884;2023-09-08T12:58:30;742.80;1510.40
55329;DHT22;41205;44.264;19.884;2023-09-08T13:00:55;742.90;1510.40
55329;DHT22;41205;44.264;19.884;2023-09-08T13:03:22;742.80;1484.80
55329;DHT22;41205;44.264;19.884;2023-09-08T13:05:48;742.80;1484.80
55329;DHT22;41205;44.264;19.884;2023-09-08T13:08:13;742.90;1510.40
55329;DHT22;41205;44.264;19.884;2023-09-08T13:10:41;742.70;1510.40
55329;DHT22;41205;44.264;19.884;2023-09-08T13:13:07;742.80;1510.40
55329;DHT22;41205;44.264;19.884;2023-09-08T13:15:33;742.90;1484.80
55329;DHT22;41205;44.264;19.884;2023-09-08T13:17:59;743.00;1484.80
55329;DHT22;41205;44.264;19.884;2023-09-08T13:20:24;742.90;1510.40
55329;DHT22;41205;44.264;19.884;2023-09-08T13:22:50;742.80;1510.40
55329;DHT22;41205;44.264;19.884;2023-09-08T13:25:16;742.90;1536.00
55329;DHT22;41205;44.264;19.884;2023-09-08T13:27:42;742.60;1510.40
55329;DHT22;41205;44.264;19.884;2023-09-08T13:30:12;742.40;1510.40
55329;DHT22;41205;44.264;19.884;2023-09-08T13:32:38;742.40;1536.00
55329;DHT22;41205;44.264;19.884;2023-09-08T13:35:05;742.40;1561.60
55329;DHT22;41205;44.264;19.884;2023-09-08T13:37:31;717.70;1510.40
55329;DHT22;41205;44.264;19.884;2023-09-08T13:40:00;717.50;1510.40
55329;DHT22;41205;44.264;19.884;2023-09-08T13:42:26;717.50;1536.00
55329;DHT22;41205;44.264;19.884;2023-09-08T13:44:51;717.40;1536.00
55329;DHT22;41205;44.264;19.884;2023-09-08T13:47:17;717.40;1510.40
55329;DHT22;41205;44.264;19.884;2023-09-08T13:49:43;717.40;1510.40
55329;DHT22;41205;44.264;19.884;2023-09-08T13:52:08;717.10;1536.00
55329;DHT22;41205;44.264;19.884;2023-09-08T13:54:34;717.10;1536.00
55329;DHT22;41205;44.264;19.884;2023-09-08T13:57:02;717.00;1561.60
55329;DHT22;41205;44.264;19.884;2023-09-08T13:59:29;717.00;1561.60
55329;DHT22;41205;44.264;19.884;2023-09-08T14:01:55;717.10;1561.60
55329;DHT22;41205;44.264;19.884;2023-09-08T14:04:21;717.00;1536.00
55329;DHT22;41205;44.264;19.884;2023-09-08T14:06:47;717.20;1536.00
55329;DHT22;41205;44.264;19.884;2023-09-08T14:09:14;717.20;1510.40
55329;DHT22;41205;44.264;19.884;2023-09-08T14:11:40;717.40;1484.80
55329;DHT22;41205;44.264;19.884;2023-09-08T14:14:06;717.50;1484.80
55329;DHT22;41205;44.264;19.884;2023-09-08T14:16:32;717.40;1484.80
55329;DHT22;41205;44.264;19.884;2023-09-08T14:18:57;717.70;1510.40
55329;DHT22;41205;44.264;19.884;2023-09-08T14:21:23;717.60;1510.40
55329;DHT22;41205;44.264;19.884;2023-09-08T14:23:49;717.50;1484.80
55329;DHT22;41205;44.264;19.884;2023-09-08T14:26:15;717.50;1510.40
55329;DHT22;41205;44.264;19.884;2023-09-08T14:28:40;717.60;1484.80
55329;DHT22;41205;44.264;19.884;2023-09-08T14:31:06;717.70;1484.80
55329;DHT22;41205;44.264;19.884;2023-09-08T14:33:32;717.70;1510.40
55329;DHT22;41205;44.264;19.884;2023-09-08T14:35:59;717.60;1484.80
55329;DHT22;41205;44.264;19.884;2023-09-08T14:38:25;717.70;1510.40